createdAt,value
2019-02-23T00:00:45.651Z,-1.30
2019-02-23T00:03:35.225Z,-1.36
2019-02-23T00:06:29.876Z,-1.41
2019-02-23T00:09:16.263Z,-1.44
2019-02-23T00:12:05.620Z,-1.44
2019-02-23T00:14:54.694Z,-1.47
2019-02-23T00:17:44.896Z,-1.43
2019-02-23T00:20:34.203Z,-1.43
2019-02-23T00:23:23.866Z,-1.43
2019-02-23T00:26:14.400Z,-1.46
2019-02-23T00:29:03.777Z,-1.50
2019-02-23T00:31:53.298Z,-1.51
2019-02-23T00:34:42.584Z,-1.55
2019-02-23T00:37:31.801Z,-1.62
2019-02-23T00:40:21.142Z,-1.65
2019-02-23T00:43:10.364Z,-1.61
2019-02-23T00:46:00.130Z,-1.64
2019-02-23T00:48:49.746Z,-1.71
2019-02-23T00:51:39.292Z,-1.70
2019-02-23T00:54:28.848Z,-1.73
2019-02-23T00:57:18.516Z,-1.79
2019-02-23T01:00:09.273Z,-1.86
2019-02-23T01:02:58.827Z,-1.91
2019-02-23T01:05:48.507Z,-1.94
2019-02-23T01:08:38.053Z,-1.96
2019-02-23T01:11:27.443Z,-1.97
2019-02-23T01:14:17.098Z,-1.97
2019-02-23T01:17:06.677Z,-1.96
2019-02-23T01:19:57.027Z,-2.01
2019-02-23T01:22:46.612Z,-2.05
2019-02-23T01:25:36.135Z,-2.06
2019-02-23T01:28:25.843Z,-2.09
2019-02-23T01:31:15.402Z,-2.09
2019-02-23T01:34:04.684Z,-2.11
2019-02-23T01:36:54.017Z,-2.15
2019-02-23T01:39:43.619Z,-2.17
2019-02-23T01:42:33.191Z,-2.14
2019-02-23T01:45:23.052Z,-2.14
2019-02-23T01:48:12.473Z,-2.11
2019-02-23T01:51:01.929Z,-2.13
2019-02-23T01:53:51.274Z,-2.20
2019-02-23T01:56:40.791Z,-2.25
2019-02-23T01:59:30.123Z,-2.33
2019-02-23T02:02:19.704Z,-2.38
2019-02-23T02:05:09.514Z,-2.27
2019-02-23T02:07:58.959Z,-2.15
2019-02-23T02:10:48.229Z,-2.14
2019-02-23T02:13:37.552Z,-2.14
2019-02-23T02:16:27.231Z,-2.14
2019-02-23T02:19:16.533Z,-2.27
2019-02-23T02:22:06.888Z,-2.36
2019-02-23T02:24:56.405Z,-2.42
2019-02-23T02:27:45.875Z,-2.43
2019-02-23T02:30:35.183Z,-2.49
2019-02-23T02:33:24.515Z,-2.53
2019-02-23T02:36:14.139Z,-2.49
2019-02-23T02:39:05.206Z,-2.41
2019-02-23T02:41:54.569Z,-2.43
2019-02-23T02:44:44.365Z,-2.42
2019-02-23T02:47:33.597Z,-2.34
2019-02-23T02:50:24.572Z,-2.37
2019-02-23T02:53:13.829Z,-2.40
2019-02-23T02:56:03.478Z,-2.44
2019-02-23T02:58:52.765Z,-2.45
2019-02-23T03:01:42.402Z,-2.49
2019-02-23T03:04:32.075Z,-2.47
2019-02-23T03:07:21.739Z,-2.47
2019-02-23T03:10:10.927Z,-2.46
2019-02-23T03:13:00.420Z,-2.55
2019-02-23T03:15:49.990Z,-2.64
2019-02-23T03:18:39.342Z,-2.67
2019-02-23T03:21:28.702Z,-2.72
2019-02-23T03:24:18.101Z,-2.74
2019-02-23T03:27:09.440Z,-2.74
2019-02-23T03:29:58.970Z,-2.72
2019-02-23T03:32:48.673Z,-2.73
2019-02-23T03:35:38.324Z,-2.72
2019-02-23T03:38:27.821Z,-2.78
2019-02-23T03:41:17.293Z,-2.80
2019-02-23T03:44:06.831Z,-2.88
2019-02-23T03:46:56.121Z,-2.92
2019-02-23T03:49:45.687Z,-2.92
2019-02-23T03:52:35.325Z,-2.91
2019-02-23T03:55:24.538Z,-2.91
2019-02-23T03:58:14.147Z,-2.91
2019-02-23T04:01:03.867Z,-2.85
2019-02-23T04:03:53.356Z,-2.91
2019-02-23T04:06:42.591Z,-2.89
2019-02-23T04:09:31.994Z,-2.91
2019-02-23T04:12:21.252Z,-2.82
2019-02-23T04:15:10.767Z,-2.88
2019-02-23T04:18:00.301Z,-2.95
2019-02-23T04:21:01.303Z,-3.00
2019-02-23T04:23:41.516Z,-3.03
2019-02-23T04:26:31.050Z,-3.07
2019-02-23T04:29:20.549Z,-3.16
2019-02-23T04:32:10.161Z,-3.21
2019-02-23T04:34:59.452Z,-3.23
2019-02-23T04:37:48.735Z,-3.24
2019-02-23T04:40:38.377Z,-3.28
2019-02-23T04:43:27.936Z,-3.26
2019-02-23T04:46:17.238Z,-3.32
2019-02-23T04:49:06.938Z,-3.34
2019-02-23T04:51:56.450Z,-3.39
2019-02-23T04:54:45.678Z,-3.40
2019-02-23T04:57:35.140Z,-3.44
2019-02-23T05:00:24.830Z,-3.51
2019-02-23T05:03:14.511Z,-3.60
2019-02-23T05:06:03.893Z,-3.62
2019-02-23T05:08:53.379Z,-3.61
2019-02-23T05:11:42.924Z,-3.66
2019-02-23T05:14:32.476Z,-3.69
2019-02-23T05:17:22.003Z,-3.69
2019-02-23T05:20:11.387Z,-3.72
2019-02-23T05:23:00.886Z,-3.72
2019-02-23T05:25:50.249Z,-3.82
2019-02-23T05:28:40.729Z,-3.87
2019-02-23T05:31:30.784Z,-3.89
2019-02-23T05:34:20.495Z,-3.96
2019-02-23T05:37:10.140Z,-3.99
2019-02-23T05:39:59.649Z,-4.01
2019-02-23T05:43:00.122Z,-4.04
2019-02-23T05:45:40.128Z,-4.04
2019-02-23T05:48:29.328Z,-4.06
2019-02-23T05:51:18.775Z,-4.05
2019-02-23T05:54:08.318Z,-4.06
2019-02-23T05:56:57.640Z,-4.05
2019-02-23T05:59:47.313Z,-4.04
2019-02-23T06:02:36.467Z,-4.05
2019-02-23T06:05:25.792Z,-4.11
2019-02-23T06:08:15.020Z,-4.10
2019-02-23T06:11:04.542Z,-4.10
2019-02-23T06:13:53.879Z,-4.07
2019-02-23T06:16:43.570Z,-4.05
2019-02-23T06:19:33.203Z,-3.99
2019-02-23T06:22:22.864Z,-4.04
2019-02-23T06:25:12.735Z,-3.86
2019-02-23T06:28:02.309Z,-3.89
2019-02-23T06:30:51.890Z,-3.80
2019-02-23T06:33:41.294Z,-3.82
2019-02-23T06:36:31.126Z,-3.78
2019-02-23T06:39:20.830Z,-3.68
2019-02-23T06:42:10.103Z,-3.73
2019-02-23T06:44:59.698Z,-3.69
2019-02-23T06:47:48.991Z,-3.64
2019-02-23T06:50:38.638Z,-3.56
2019-02-23T06:53:28.137Z,-3.50
2019-02-23T06:56:18.017Z,-3.38
2019-02-23T06:59:07.367Z,-3.37
2019-02-23T07:01:56.844Z,-3.30
2019-02-23T07:04:46.249Z,-3.21
2019-02-23T07:07:35.531Z,-3.11
2019-02-23T07:10:24.866Z,-2.98
2019-02-23T07:13:14.587Z,-2.94
2019-02-23T07:16:04.271Z,-2.90
2019-02-23T07:18:53.959Z,-2.82
2019-02-23T07:21:43.238Z,-2.69
2019-02-23T07:24:32.622Z,-2.60
2019-02-23T07:27:22.101Z,-2.60
2019-02-23T07:30:11.911Z,-2.65
2019-02-23T07:33:01.692Z,-2.64
2019-02-23T07:35:51.287Z,-2.68
2019-02-23T07:38:40.525Z,-2.47
2019-02-23T07:41:30.136Z,-2.47
2019-02-23T07:44:19.358Z,-2.24
2019-02-23T07:47:08.731Z,-1.95
2019-02-23T07:49:58.349Z,-1.88
2019-02-23T07:52:47.718Z,-1.82
2019-02-23T07:55:37.215Z,-1.73
2019-02-23T07:58:26.845Z,-1.74
2019-02-23T08:01:16.394Z,-1.87
2019-02-23T08:04:05.976Z,-1.96
2019-02-23T08:06:55.641Z,-1.93
2019-02-23T08:09:47.078Z,-1.58
2019-02-23T08:12:36.455Z,-1.36
2019-02-23T08:15:25.862Z,-1.23
2019-02-23T08:18:15.363Z,-1.36
2019-02-23T08:21:05.031Z,-1.67
2019-02-23T08:23:54.699Z,-1.13
2019-02-23T08:26:31.243Z,-1.11
2019-02-23T08:29:03.765Z,-1.24
2019-02-23T08:31:36.424Z,-1.09
2019-02-23T08:34:09.533Z,-1.06
2019-02-23T08:36:45.024Z,-1.35
2019-02-23T08:39:16.765Z,-1.47
2019-02-23T08:41:50.402Z,-1.19
2019-02-23T08:44:23.199Z,-0.98
2019-02-23T08:46:54.487Z,-0.89
2019-02-23T08:49:25.838Z,-0.63
2019-02-23T08:51:57.380Z,-0.68
2019-02-23T08:54:28.683Z,-0.65
2019-02-23T08:56:59.948Z,-0.78
2019-02-23T08:59:32.100Z,-0.58
2019-02-23T09:02:03.398Z,-0.19
2019-02-23T09:04:35.010Z,-0.10
2019-02-23T09:07:06.697Z,0.04
2019-02-23T09:09:38.214Z,0.26
2019-02-23T09:12:09.791Z,0.33
2019-02-23T09:14:41.264Z,0.32
2019-02-23T09:17:13.297Z,0.38
2019-02-23T09:19:44.601Z,0.47
2019-02-23T09:22:15.864Z,0.32
2019-02-23T09:24:47.347Z,0.03
2019-02-23T09:27:19.173Z,-0.54
2019-02-23T09:29:50.790Z,-0.59
2019-02-23T09:32:22.305Z,-0.57
2019-02-23T09:34:53.928Z,-0.19
2019-02-23T09:37:29.247Z,0.20
2019-02-23T09:40:01.798Z,0.30
2019-02-23T09:42:34.942Z,0.00
2019-02-23T09:45:07.894Z,0.31
2019-02-23T09:47:40.886Z,0.50
2019-02-23T09:50:12.843Z,0.53
2019-02-23T09:52:44.466Z,0.73
2019-02-23T09:55:16.046Z,0.79
2019-02-23T09:57:47.493Z,0.90
2019-02-23T10:00:18.751Z,0.99
2019-02-23T10:02:51.180Z,1.03
2019-02-23T10:05:25.132Z,1.04
2019-02-23T10:07:56.609Z,0.75
2019-02-23T10:10:28.235Z,0.34
2019-02-23T10:13:00.305Z,0.35
2019-02-23T10:15:33.737Z,0.28
2019-02-23T10:18:05.036Z,0.26
2019-02-23T10:20:41.473Z,0.26
2019-02-23T10:23:21.454Z,0.10
2019-02-23T10:25:47.311Z,0.26
2019-02-23T10:28:18.566Z,0.16
2019-02-23T10:30:50.127Z,0.71
2019-02-23T10:33:21.598Z,0.74
2019-02-23T10:35:53.104Z,1.17
2019-02-23T10:38:24.672Z,1.51
2019-02-23T10:40:55.927Z,1.28
2019-02-23T10:43:27.487Z,1.08
2019-02-23T10:45:59.759Z,1.06
2019-02-23T10:48:31.365Z,1.42
2019-02-23T10:51:03.060Z,1.42
2019-02-23T10:53:34.573Z,1.71
2019-02-23T10:56:06.204Z,1.89
2019-02-23T10:58:37.889Z,1.21
2019-02-23T11:01:09.518Z,0.94
2019-02-23T11:03:41.034Z,1.07
2019-02-23T11:06:12.917Z,0.94
2019-02-23T11:08:44.421Z,0.85
2019-02-23T11:11:15.674Z,1.27
2019-02-23T11:13:47.415Z,1.73
2019-02-23T11:16:19.616Z,2.12
2019-02-23T11:18:51.093Z,2.27
2019-02-23T11:21:22.395Z,2.73
2019-02-23T11:23:54.260Z,2.65
2019-02-23T11:26:25.873Z,2.56
2019-02-23T11:28:57.579Z,2.66
2019-02-23T11:31:29.208Z,2.70
2019-02-23T11:34:00.853Z,2.65
2019-02-23T11:36:32.608Z,2.82
2019-02-23T11:39:04.388Z,2.99
2019-02-23T11:41:35.631Z,2.99
2019-02-23T11:44:07.728Z,3.11
2019-02-23T11:46:39.289Z,3.00
2019-02-23T11:49:10.940Z,3.04
2019-02-23T11:51:42.252Z,3.06
2019-02-23T11:54:13.985Z,3.10
2019-02-23T11:56:45.570Z,3.16
2019-02-23T11:59:17.250Z,2.71
2019-02-23T12:01:48.787Z,2.91
2019-02-23T12:04:20.376Z,3.05
2019-02-23T12:06:51.817Z,3.15
2019-02-23T12:09:23.538Z,2.75
2019-02-23T12:11:55.418Z,2.60
2019-02-23T12:14:26.754Z,2.89
2019-02-23T12:16:58.242Z,2.86
2019-02-23T12:19:31.094Z,3.05
2019-02-23T12:22:12.031Z,2.80
2019-02-23T12:24:41.935Z,2.25
2019-02-23T12:27:13.836Z,2.45
2019-02-23T12:29:45.069Z,2.57
2019-02-23T12:32:16.873Z,3.06
2019-02-23T12:34:48.688Z,3.30
2019-02-23T12:37:20.279Z,3.29
2019-02-23T12:39:51.526Z,3.19
2019-02-23T12:42:23.588Z,3.40
2019-02-23T12:44:55.489Z,3.55
2019-02-23T12:47:27.084Z,3.70
2019-02-23T12:49:59.184Z,3.32
2019-02-23T12:52:30.429Z,3.20
2019-02-23T12:55:01.967Z,3.10
2019-02-23T12:57:33.531Z,2.92
2019-02-23T13:00:04.952Z,3.09
2019-02-23T13:02:36.755Z,3.46
2019-02-23T13:05:08.547Z,3.68
2019-02-23T13:07:39.926Z,3.67
2019-02-23T13:10:11.651Z,3.73
2019-02-23T13:13:33.295Z,3.61
2019-02-23T13:16:34.082Z,3.61
2019-02-23T13:20:04.810Z,3.25
2019-02-23T13:23:14.708Z,3.13
2019-02-23T13:26:05.182Z,3.31
2019-02-23T13:29:15.852Z,3.43
2019-02-23T13:32:17.203Z,3.39
2019-02-23T13:35:40.700Z,3.57
2019-02-23T13:38:38.295Z,3.50
2019-02-23T13:41:35.611Z,3.30
2019-02-23T13:45:07.516Z,3.39
2019-02-23T13:48:11.177Z,3.40
2019-02-23T13:51:12.326Z,3.37
2019-02-23T13:54:44.169Z,3.40
2019-02-23T13:57:58.005Z,3.44
2019-02-23T14:01:07.575Z,3.58
2019-02-23T14:04:08.796Z,3.49
2019-02-23T14:07:38.972Z,3.42
2019-02-23T14:10:59.342Z,3.34
2019-02-23T14:14:06.858Z,3.44
2019-02-23T14:17:04.089Z,3.39
2019-02-23T14:20:29.359Z,3.29
2019-02-23T14:23:38.658Z,3.30
2019-02-23T14:27:09.756Z,3.38
2019-02-23T14:30:08.347Z,3.19
2019-02-23T14:33:31.522Z,3.11
2019-02-23T14:36:25.828Z,3.15
2019-02-23T14:39:37.692Z,3.17
2019-02-23T14:42:51.810Z,3.09
2019-02-23T14:46:07.066Z,2.95
2019-02-23T14:48:50.024Z,2.94
2019-02-23T14:52:16.567Z,2.79
2019-02-23T14:55:12.079Z,2.91
2019-02-23T14:58:15.271Z,2.99
2019-02-23T15:01:25.589Z,2.95
2019-02-23T15:04:15.368Z,2.73
2019-02-23T15:07:22.158Z,2.73
2019-02-23T15:10:57.762Z,2.66
2019-02-23T15:14:26.174Z,2.59
2019-02-23T15:17:55.040Z,2.50
2019-02-23T15:20:47.241Z,2.47
2019-02-23T15:23:34.961Z,2.43
2019-02-23T15:26:32.346Z,2.32
2019-02-23T15:29:30.263Z,2.32
2019-02-23T15:32:58.559Z,2.26
2019-02-23T15:35:55.019Z,2.28
2019-02-23T15:39:09.509Z,2.23
2019-02-23T15:42:34.072Z,2.23
2019-02-23T15:45:41.902Z,2.18
2019-02-23T15:48:47.202Z,2.25
2019-02-23T15:51:18.605Z,2.17
2019-02-23T15:53:51.538Z,2.11
2019-02-23T15:56:23.564Z,2.01
2019-02-23T15:58:57.435Z,1.96
2019-02-23T16:01:30.236Z,1.89
2019-02-23T16:04:01.947Z,1.82
2019-02-23T16:06:35.212Z,2.15
2019-02-23T16:09:08.913Z,2.16
2019-02-23T16:11:45.103Z,2.05
2019-02-23T16:14:16.781Z,1.92
2019-02-23T16:16:48.162Z,1.78
2019-02-23T16:19:21.839Z,1.68
2019-02-23T16:21:56.230Z,1.60
2019-02-23T16:24:30.245Z,1.53
2019-02-23T16:27:05.923Z,1.50
2019-02-23T16:29:38.926Z,1.48
2019-02-23T16:32:12.249Z,1.48
2019-02-23T16:34:43.973Z,1.46
2019-02-23T16:37:16.630Z,1.43
2019-02-23T16:39:47.955Z,1.42
2019-02-23T16:42:21.630Z,1.40
2019-02-23T16:44:55.481Z,1.22
2019-02-23T16:47:27.668Z,1.05
2019-02-23T16:50:00.427Z,0.93
2019-02-23T16:52:34.424Z,0.80
2019-02-23T16:55:08.165Z,0.73
2019-02-23T16:57:43.770Z,0.65
2019-02-23T17:00:16.165Z,0.57
2019-02-23T17:02:47.856Z,0.48
2019-02-23T17:05:20.819Z,0.35
2019-02-23T17:07:53.714Z,0.25
2019-02-23T17:10:25.477Z,0.18
2019-02-23T17:12:57.553Z,0.11
2019-02-23T17:15:30.494Z,0.04
2019-02-23T17:18:01.813Z,-0.03
2019-02-23T17:20:35.348Z,-0.10
2019-02-23T17:23:11.595Z,-0.20
2019-02-23T17:25:43.236Z,-0.24
2019-02-23T17:28:17.212Z,-0.34
2019-02-23T17:30:48.504Z,-0.39
2019-02-23T17:33:21.961Z,-0.41
2019-02-23T17:35:53.315Z,-0.44
2019-02-23T17:38:26.907Z,-0.47
2019-02-23T17:40:58.403Z,-0.50
2019-02-23T17:43:33.329Z,-0.55
2019-02-23T17:46:05.243Z,-0.62
2019-02-23T17:48:37.601Z,-0.65
2019-02-23T17:51:11.249Z,-0.72
2019-02-23T17:53:45.072Z,-0.79
2019-02-23T17:56:18.939Z,-0.84
2019-02-23T17:58:52.367Z,-0.87
2019-02-23T18:01:23.619Z,-0.87
2019-02-23T18:03:57.790Z,-0.88
2019-02-23T18:06:32.939Z,-0.92
2019-02-23T18:09:05.943Z,-0.92
2019-02-23T18:11:39.879Z,-0.94
2019-02-23T18:14:13.320Z,-0.95
2019-02-23T18:16:49.145Z,-1.08
2019-02-23T18:19:23.537Z,-1.12
2019-02-23T18:21:55.914Z,-1.19
2019-02-23T18:24:28.960Z,-1.21
2019-02-23T18:27:03.242Z,-1.22
2019-02-23T18:29:36.826Z,-1.26
2019-02-23T18:32:08.744Z,-1.27
2019-02-23T18:34:41.846Z,-1.26
2019-02-23T18:37:13.384Z,-1.27
2019-02-23T18:39:47.211Z,-1.31
2019-02-23T18:42:21.292Z,-1.39
2019-02-23T18:44:55.168Z,-1.44
2019-02-23T18:47:29.146Z,-1.45
2019-02-23T18:50:03.010Z,-1.48
2019-02-23T18:52:36.482Z,-1.54
2019-02-23T18:55:08.411Z,-1.59
2019-02-23T18:57:41.692Z,-1.64
2019-02-23T19:00:24.224Z,-1.67
2019-02-23T19:02:51.606Z,-1.67
2019-02-23T19:05:23.505Z,-1.66
2019-02-23T19:07:57.444Z,-1.72
2019-02-23T19:10:30.435Z,-1.71
2019-02-23T19:13:02.078Z,-1.71
2019-02-23T19:15:38.150Z,-1.72
2019-02-23T19:18:09.988Z,-1.76
2019-02-23T19:20:42.879Z,-1.79
2019-02-23T19:23:14.742Z,-1.79
2019-02-23T19:25:47.789Z,-1.83
2019-02-23T19:28:19.581Z,-1.86
2019-02-23T19:30:50.896Z,-1.91
2019-02-23T19:33:24.385Z,-2.00
2019-02-23T19:35:56.339Z,-2.08
2019-02-23T19:38:30.319Z,-2.08
2019-02-23T19:41:04.213Z,-2.11
2019-02-23T19:43:38.023Z,-2.12
2019-02-23T19:46:11.738Z,-2.17
2019-02-23T19:48:43.027Z,-2.25
2019-02-23T19:51:14.934Z,-2.27
2019-02-23T19:53:47.768Z,-2.28
2019-02-23T19:56:21.611Z,-2.32
2019-02-23T19:58:54.370Z,-2.34
2019-02-23T20:01:26.431Z,-2.36
2019-02-23T20:04:00.264Z,-2.36
2019-02-23T20:06:31.819Z,-2.38
2019-02-23T20:09:05.382Z,-2.38
2019-02-23T20:11:36.777Z,-2.38
2019-02-23T20:14:08.057Z,-2.40
2019-02-23T20:16:43.639Z,-2.41
2019-02-23T20:19:15.708Z,-2.39
2019-02-23T20:21:48.095Z,-2.40
2019-02-23T20:24:20.597Z,-2.41
2019-02-23T20:26:55.818Z,-2.40
2019-02-23T20:29:28.233Z,-2.43
2019-02-23T20:31:59.502Z,-2.47
2019-02-23T20:34:31.515Z,-2.49
2019-02-23T20:37:02.908Z,-2.51
2019-02-23T20:39:35.207Z,-2.54
2019-02-23T20:42:08.984Z,-2.54
2019-02-23T20:44:42.825Z,-2.56
2019-02-23T20:47:17.359Z,-2.56
2019-02-23T20:49:50.262Z,-2.57
2019-02-23T20:52:21.886Z,-2.61
2019-02-23T20:54:56.951Z,-2.64
2019-02-23T20:57:33.295Z,-2.66
2019-02-23T21:00:06.971Z,-2.73
2019-02-23T21:02:38.545Z,-2.75
2019-02-23T21:05:11.010Z,-2.76
2019-02-23T21:07:42.498Z,-2.81
2019-02-23T21:10:15.485Z,-2.81
2019-02-23T21:12:47.801Z,-2.83
2019-02-23T21:15:21.525Z,-2.91
2019-02-23T21:17:54.631Z,-3.02
2019-02-23T21:20:26.489Z,-3.03
2019-02-23T21:22:59.379Z,-3.04
2019-02-23T21:25:31.466Z,-3.04
2019-02-23T21:28:05.172Z,-3.03
2019-02-23T21:30:36.434Z,-3.03
2019-02-23T21:33:08.335Z,-3.02
2019-02-23T21:35:42.806Z,-3.06
2019-02-23T21:38:14.764Z,-3.11
2019-02-23T21:40:48.241Z,-3.15
2019-02-23T21:43:21.543Z,-3.16
2019-02-23T21:45:54.440Z,-3.13
2019-02-23T21:48:27.408Z,-3.15
2019-02-23T21:50:58.783Z,-3.16
2019-02-23T21:53:30.126Z,-3.20
2019-02-23T21:56:04.105Z,-3.22
2019-02-23T21:58:38.135Z,-3.24
2019-02-23T22:01:12.038Z,-3.25
2019-02-23T22:03:44.894Z,-3.30
2019-02-23T22:06:16.798Z,-3.40
2019-02-23T22:08:49.229Z,-3.51
2019-02-23T22:11:21.529Z,-3.58
2019-02-23T22:13:52.794Z,-3.57
2019-02-23T22:16:27.760Z,-3.54
2019-02-23T22:19:00.272Z,-3.56
2019-02-23T22:21:32.459Z,-3.50
2019-02-23T22:24:07.346Z,-3.44
2019-02-23T22:26:41.140Z,-3.45
2019-02-23T22:29:12.970Z,-3.45
2019-02-23T22:31:44.233Z,-3.45
2019-02-23T22:34:16.132Z,-3.47
2019-02-23T22:36:48.434Z,-3.45
2019-02-23T22:39:22.636Z,-3.52
2019-02-23T22:41:56.101Z,-3.55
2019-02-23T22:44:27.418Z,-3.11
2019-02-23T22:47:01.368Z,-2.90
2019-02-23T22:49:35.299Z,-3.10
2019-02-23T22:52:06.583Z,-3.19
2019-02-23T22:54:40.126Z,-3.29
2019-02-23T22:57:14.116Z,-3.34
2019-02-23T22:59:49.433Z,-3.37
2019-02-23T23:02:25.258Z,-3.45
2019-02-23T23:04:58.625Z,-3.49
2019-02-23T23:07:31.420Z,-3.57
2019-02-23T23:10:06.301Z,-3.66
2019-02-23T23:12:40.832Z,-3.68
2019-02-23T23:15:13.334Z,-3.69
2019-02-23T23:17:44.682Z,-3.71
2019-02-23T23:20:16.115Z,-3.71
2019-02-23T23:22:48.304Z,-3.72
2019-02-23T23:25:19.820Z,-3.68
2019-02-23T23:27:51.843Z,-3.79
2019-02-23T23:30:26.344Z,-3.85
2019-02-23T23:32:58.595Z,-3.89
2019-02-23T23:35:32.138Z,-3.87
2019-02-23T23:38:06.335Z,-3.87
2019-02-23T23:40:37.868Z,-3.89
2019-02-23T23:43:12.227Z,-3.91
2019-02-23T23:45:45.032Z,-4.57
2019-02-23T23:48:19.059Z,-3.94
2019-02-23T23:50:52.024Z,-4.08
2019-02-23T23:53:23.820Z,-4.12
2019-02-23T23:55:57.948Z,-4.17
2019-02-23T23:58:29.210Z,-4.23
